sensor_id;sensor_type;location;lat;lon;timestamp;temperature;humidity
13482;DHT22;6813;60.352;15.746;2023-07-24T00:02:03;14.40;99.90
13482;DHT22;6813;60.352;15.746;2023-07-24T00:04:31;14.30;99.90
13482;DHT22;6813;60.352;15.746;2023-07-24T00:06:56;14.30;99.90
13482;DHT22;6813;60.352;15.746;2023-07-24T00:09:22;14.40;99.90
13482;DHT22;6813;60.352;15.746;2023-07-24T00:11:48;14.30;99.90
13482;DHT22;6813;60.352;15.746;2023-07-24T00:14:15;14.30;99.90
13482;DHT22;6813;60.352;15.746;2023-07-24T00:16:41;14.30;99.90
13482;DHT22;6813;60.352;15.746;2023-07-24T00:19:07;14.30;99.90
13482;DHT22;6813;60.352;15.746;2023-07-24T00:21:32;14.20;99.90
13482;DHT22;6813;60.352;15.746;2023-07-24T00:23:58;14.10;99.90
13482;DHT22;6813;60.352;15.746;2023-07-24T00:26:24;14.10;99.90
13482;DHT22;6813;60.352;15.746;2023-07-24T00:28:49;14.10;99.90
13482;DHT22;6813;60.352;15.746;2023-07-24T00:31:15;14.10;99.90
13482;DHT22;6813;60.352;15.746;2023-07-24T00:33:41;14.20;99.90
13482;DHT22;6813;60.352;15.746;2023-07-24T00:36:06;14.20;99.90
13482;DHT22;6813;60.352;15.746;2023-07-24T00:38:32;14.20;99.90
13482;DHT22;6813;60.352;15.746;2023-07-24T00:40:58;14.20;99.90
13482;DHT22;6813;60.352;15.746;2023-07-24T00:43:23;14.20;99.90
13482;DHT22;6813;60.352;15.746;2023-07-24T00:45:49;14.20;99.90
13482;DHT22;6813;60.352;15.746;2023-07-24T00:48:15;14.20;99.90
13482;DHT22;6813;60.352;15.746;2023-07-24T00:50:42;14.20;99.90
13482;DHT22;6813;60.352;15.746;2023-07-24T00:53:10;14.10;99.90
13482;DHT22;6813;60.352;15.746;2023-07-24T00:55:37;14.10;99.90
13482;DHT22;6813;60.352;15.746;2023-07-24T00:58:03;14.10;99.90
13482;DHT22;6813;60.352;15.746;2023-07-24T01:00:29;14.10;99.90
13482;DHT22;6813;60.352;15.746;2023-07-24T01:02:55;14.00;99.90
13482;DHT22;6813;60.352;15.746;2023-07-24T01:05:23;14.00;99.90
13482;DHT22;6813;60.352;15.746;2023-07-24T01:07:50;14.00;99.90
13482;DHT22;6813;60.352;15.746;2023-07-24T01:10:17;14.00;99.90
13482;DHT22;6813;60.352;15.746;2023-07-24T01:17:57;13.90;99.90
13482;DHT22;6813;60.352;15.746;2023-07-24T01:20:26;13.80;99.90
13482;DHT22;6813;60.352;15.746;2023-07-24T01:25:35;13.70;99.90
13482;DHT22;6813;60.352;15.746;2023-07-24T01:28:09;13.70;99.90
13482;DHT22;6813;60.352;15.746;2023-07-24T01:30:34;13.50;99.90
13482;DHT22;6813;60.352;15.746;2023-07-24T01:33:00;13.50;99.90
13482;DHT22;6813;60.352;15.746;2023-07-24T01:35:27;13.50;99.90
13482;DHT22;6813;60.352;15.746;2023-07-24T01:37:55;13.40;99.90
13482;DHT22;6813;60.352;15.746;2023-07-24T01:40:22;13.50;99.90
13482;DHT22;6813;60.352;15.746;2023-07-24T01:42:48;13.50;99.90
13482;DHT22;6813;60.352;15.746;2023-07-24T01:45:15;13.50;99.90
13482;DHT22;6813;60.352;15.746;2023-07-24T01:47:41;13.50;99.90
13482;DHT22;6813;60.352;15.746;2023-07-24T01:50:07;13.50;99.90
13482;DHT22;6813;60.352;15.746;2023-07-24T01:52:33;13.40;99.90
13482;DHT22;6813;60.352;15.746;2023-07-24T01:54:59;13.40;99.90
13482;DHT22;6813;60.352;15.746;2023-07-24T01:57:24;13.30;99.90
13482;DHT22;6813;60.352;15.746;2023-07-24T01:59:50;13.20;99.90
13482;DHT22;6813;60.352;15.746;2023-07-24T02:02:16;13.20;99.90
13482;DHT22;6813;60.352;15.746;2023-07-24T02:04:41;13.10;99.90
13482;DHT22;6813;60.352;15.746;2023-07-24T02:07:07;13.10;99.90
13482;DHT22;6813;60.352;15.746;2023-07-24T02:09:33;13.10;99.90
13482;DHT22;6813;60.352;15.746;2023-07-24T02:11:58;13.10;99.90
13482;DHT22;6813;60.352;15.746;2023-07-24T02:14:24;13.10;99.90
13482;DHT22;6813;60.352;15.746;2023-07-24T02:16:50;13.10;99.90
13482;DHT22;6813;60.352;15.746;2023-07-24T02:19:15;13.10;99.90
13482;DHT22;6813;60.352;15.746;2023-07-24T02:21:41;13.10;99.90
13482;DHT22;6813;60.352;15.746;2023-07-24T02:24:07;13.00;99.90
13482;DHT22;6813;60.352;15.746;2023-07-24T02:26:32;13.00;99.90
13482;DHT22;6813;60.352;15.746;2023-07-24T02:28:58;13.00;99.90
13482;DHT22;6813;60.352;15.746;2023-07-24T02:31:24;13.00;99.90
13482;DHT22;6813;60.352;15.746;2023-07-24T02:33:49;13.00;99.90
13482;DHT22;6813;60.352;15.746;2023-07-24T02:36:15;13.00;99.90
13482;DHT22;6813;60.352;15.746;2023-07-24T02:38:41;12.90;99.90
13482;DHT22;6813;60.352;15.746;2023-07-24T02:41:06;12.90;99.90
13482;DHT22;6813;60.352;15.746;2023-07-24T02:43:32;12.80;99.90
13482;DHT22;6813;60.352;15.746;2023-07-24T02:46:03;12.90;99.90
13482;DHT22;6813;60.352;15.746;2023-07-24T02:48:29;12.90;99.90
13482;DHT22;6813;60.352;15.746;2023-07-24T02:50:54;12.90;99.90
13482;DHT22;6813;60.352;15.746;2023-07-24T02:53:20;12.90;99.90
13482;DHT22;6813;60.352;15.746;2023-07-24T02:55:46;12.90;99.90
13482;DHT22;6813;60.352;15.746;2023-07-24T02:58:13;12.90;99.90
13482;DHT22;6813;60.352;15.746;2023-07-24T03:00:39;12.90;99.90
13482;DHT22;6813;60.352;15.746;2023-07-24T03:03:05;12.90;99.90
13482;DHT22;6813;60.352;15.746;2023-07-24T03:05:31;12.90;99.90
13482;DHT22;6813;60.352;15.746;2023-07-24T03:07:59;12.90;99.90
13482;DHT22;6813;60.352;15.746;2023-07-24T03:10:24;12.90;99.90
13482;DHT22;6813;60.352;15.746;2023-07-24T03:12:50;12.90;99.90
13482;DHT22;6813;60.352;15.746;2023-07-24T03:15:16;12.90;99.90
13482;DHT22;6813;60.352;15.746;2023-07-24T03:17:41;12.90;99.90
13482;DHT22;6813;60.352;15.746;2023-07-24T03:20:14;12.90;99.90
13482;DHT22;6813;60.352;15.746;2023-07-24T03:22:41;12.90;99.90
13482;DHT22;6813;60.352;15.746;2023-07-24T03:25:07;12.90;99.90
13482;DHT22;6813;60.352;15.746;2023-07-24T03:27:33;12.90;99.90
13482;DHT22;6813;60.352;15.746;2023-07-24T03:29:58;12.90;99.90
13482;DHT22;6813;60.352;15.746;2023-07-24T03:32:24;12.90;99.90
13482;DHT22;6813;60.352;15.746;2023-07-24T03:34:50;12.90;99.90
13482;DHT22;6813;60.352;15.746;2023-07-24T03:37:15;13.00;99.90
13482;DHT22;6813;60.352;15.746;2023-07-24T03:39:41;13.00;99.90
13482;DHT22;6813;60.352;15.746;2023-07-24T03:42:10;13.00;99.90
13482;DHT22;6813;60.352;15.746;2023-07-24T03:44:41;13.00;99.90
13482;DHT22;6813;60.352;15.746;2023-07-24T03:47:07;13.10;99.90
13482;DHT22;6813;60.352;15.746;2023-07-24T03:49:33;13.20;99.90
13482;DHT22;6813;60.352;15.746;2023-07-24T03:51:59;13.30;99.90
13482;DHT22;6813;60.352;15.746;2023-07-24T03:54:24;13.30;99.90
13482;DHT22;6813;60.352;15.746;2023-07-24T03:56:50;13.40;99.90
13482;DHT22;6813;60.352;15.746;2023-07-24T03:59:16;13.40;99.90
13482;DHT22;6813;60.352;15.746;2023-07-24T04:01:41;13.50;99.90
13482;DHT22;6813;60.352;15.746;2023-07-24T04:04:07;13.60;99.90
13482;DHT22;6813;60.352;15.746;2023-07-24T04:06:33;13.70;99.90
13482;DHT22;6813;60.352;15.746;2023-07-24T04:08:58;13.90;99.90
13482;DHT22;6813;60.352;15.746;2023-07-24T04:11:24;14.00;99.90
13482;DHT22;6813;60.352;15.746;2023-07-24T04:13:50;14.20;99.90
13482;DHT22;6813;60.352;15.746;2023-07-24T04:16:15;14.30;99.90
13482;DHT22;6813;60.352;15.746;2023-07-24T04:18:41;14.40;99.90
13482;DHT22;6813;60.352;15.746;2023-07-24T04:21:07;14.50;99.90
13482;DHT22;6813;60.352;15.746;2023-07-24T04:23:32;14.70;99.90
13482;DHT22;6813;60.352;15.746;2023-07-24T04:25:58;14.80;99.90
13482;DHT22;6813;60.352;15.746;2023-07-24T04:28:24;15.00;99.90
13482;DHT22;6813;60.352;15.746;2023-07-24T04:30:49;15.10;99.90
13482;DHT22;6813;60.352;15.746;2023-07-24T04:33:15;15.40;99.90
13482;DHT22;6813;60.352;15.746;2023-07-24T04:35:41;15.50;99.90
13482;DHT22;6813;60.352;15.746;2023-07-24T04:38:06;15.70;99.90
13482;DHT22;6813;60.352;15.746;2023-07-24T04:40:32;15.90;99.90
13482;DHT22;6813;60.352;15.746;2023-07-24T04:42:58;16.10;99.90
13482;DHT22;6813;60.352;15.746;2023-07-24T04:45:24;16.30;99.90
13482;DHT22;6813;60.352;15.746;2023-07-24T04:47:49;16.50;99.90
13482;DHT22;6813;60.352;15.746;2023-07-24T04:50:15;16.60;99.90
13482;DHT22;6813;60.352;15.746;2023-07-24T04:52:41;16.70;99.90
13482;DHT22;6813;60.352;15.746;2023-07-24T04:55:06;16.80;99.90
13482;DHT22;6813;60.352;15.746;2023-07-24T04:57:32;17.00;99.90
13482;DHT22;6813;60.352;15.746;2023-07-24T04:59:58;17.20;99.90
13482;DHT22;6813;60.352;15.746;2023-07-24T05:02:24;17.40;99.90
13482;DHT22;6813;60.352;15.746;2023-07-24T05:04:49;17.60;99.90
13482;DHT22;6813;60.352;15.746;2023-07-24T05:07:15;17.80;99.90
13482;DHT22;6813;60.352;15.746;2023-07-24T05:09:41;18.00;99.90
13482;DHT22;6813;60.352;15.746;2023-07-24T05:12:07;18.30;99.90
13482;DHT22;6813;60.352;15.746;2023-07-24T05:14:32;18.40;99.90
13482;DHT22;6813;60.352;15.746;2023-07-24T05:16:58;18.50;99.90
13482;DHT22;6813;60.352;15.746;2023-07-24T05:19:24;18.50;99.90
13482;DHT22;6813;60.352;15.746;2023-07-24T05:21:49;18.50;99.90
13482;DHT22;6813;60.352;15.746;2023-07-24T05:24:15;18.40;99.90
13482;DHT22;6813;60.352;15.746;2023-07-24T05:26:41;18.30;99.90
13482;DHT22;6813;60.352;15.746;2023-07-24T05:29:07;18.20;99.90
13482;DHT22;6813;60.352;15.746;2023-07-24T05:31:34;18.00;99.90
13482;DHT22;6813;60.352;15.746;2023-07-24T05:34:00;17.80;99.90
13482;DHT22;6813;60.352;15.746;2023-07-24T05:36:26;17.60;99.90
13482;DHT22;6813;60.352;15.746;2023-07-24T05:38:52;17.50;99.90
13482;DHT22;6813;60.352;15.746;2023-07-24T05:41:18;17.40;99.90
13482;DHT22;6813;60.352;15.746;2023-07-24T05:43:44;17.20;99.90
13482;DHT22;6813;60.352;15.746;2023-07-24T05:46:09;17.30;99.90
13482;DHT22;6813;60.352;15.746;2023-07-24T05:48:35;17.40;99.90
13482;DHT22;6813;60.352;15.746;2023-07-24T05:51:01;17.60;99.90
13482;DHT22;6813;60.352;15.746;2023-07-24T05:53:26;17.80;99.90
13482;DHT22;6813;60.352;15.746;2023-07-24T05:56:00;17.90;99.90
13482;DHT22;6813;60.352;15.746;2023-07-24T05:58:26;18.10;99.90
13482;DHT22;6813;60.352;15.746;2023-07-24T06:00:52;18.30;99.90
13482;DHT22;6813;60.352;15.746;2023-07-24T06:03:17;18.50;99.90
13482;DHT22;6813;60.352;15.746;2023-07-24T06:05:43;18.70;99.90
13482;DHT22;6813;60.352;15.746;2023-07-24T06:08:08;19.10;99.90
13482;DHT22;6813;60.352;15.746;2023-07-24T06:10:36;19.30;99.90
13482;DHT22;6813;60.352;15.746;2023-07-24T06:13:02;19.70;99.90
13482;DHT22;6813;60.352;15.746;2023-07-24T06:15:28;20.00;99.90
13482;DHT22;6813;60.352;15.746;2023-07-24T06:17:54;20.40;99.90
13482;DHT22;6813;60.352;15.746;2023-07-24T06:20:19;20.70;99.90
13482;DHT22;6813;60.352;15.746;2023-07-24T06:22:45;21.00;99.90
13482;DHT22;6813;60.352;15.746;2023-07-24T06:25:11;21.20;99.90
13482;DHT22;6813;60.352;15.746;2023-07-24T06:27:36;21.50;99.90
13482;DHT22;6813;60.352;15.746;2023-07-24T06:30:03;21.80;99.90
13482;DHT22;6813;60.352;15.746;2023-07-24T06:32:29;22.10;99.90
13482;DHT22;6813;60.352;15.746;2023-07-24T06:34:54;22.40;99.90
13482;DHT22;6813;60.352;15.746;2023-07-24T06:37:20;22.60;99.90
13482;DHT22;6813;60.352;15.746;2023-07-24T06:39:46;22.70;99.90
13482;DHT22;6813;60.352;15.746;2023-07-24T06:42:11;22.90;99.90
13482;DHT22;6813;60.352;15.746;2023-07-24T06:44:37;23.10;99.90
13482;DHT22;6813;60.352;15.746;2023-07-24T06:47:03;23.20;99.90
13482;DHT22;6813;60.352;15.746;2023-07-24T06:49:28;23.30;99.90
13482;DHT22;6813;60.352;15.746;2023-07-24T06:51:54;23.40;99.70
13482;DHT22;6813;60.352;15.746;2023-07-24T06:54:20;23.50;99.20
13482;DHT22;6813;60.352;15.746;2023-07-24T06:56:45;23.60;99.20
13482;DHT22;6813;60.352;15.746;2023-07-24T06:59:11;23.70;98.80
13482;DHT22;6813;60.352;15.746;2023-07-24T07:01:37;23.90;99.00
13482;DHT22;6813;60.352;15.746;2023-07-24T07:04:02;24.10;98.80
13482;DHT22;6813;60.352;15.746;2023-07-24T07:06:28;24.30;98.30
13482;DHT22;6813;60.352;15.746;2023-07-24T07:08:54;24.40;98.30
13482;DHT22;6813;60.352;15.746;2023-07-24T07:11:19;24.60;98.10
13482;DHT22;6813;60.352;15.746;2023-07-24T07:13:45;24.70;98.30
13482;DHT22;6813;60.352;15.746;2023-07-24T07:16:10;24.80;97.60
13482;DHT22;6813;60.352;15.746;2023-07-24T07:18:36;24.90;97.40
13482;DHT22;6813;60.352;15.746;2023-07-24T07:21:02;25.00;97.00
13482;DHT22;6813;60.352;15.746;2023-07-24T07:23:27;25.10;96.70
13482;DHT22;6813;60.352;15.746;2023-07-24T07:25:53;25.00;96.90
13482;DHT22;6813;60.352;15.746;2023-07-24T07:28:19;25.10;97.30
13482;DHT22;6813;60.352;15.746;2023-07-24T07:30:44;25.20;96.90
13482;DHT22;6813;60.352;15.746;2023-07-24T07:33:10;25.30;96.90
13482;DHT22;6813;60.352;15.746;2023-07-24T07:35:36;25.50;96.70
13482;DHT22;6813;60.352;15.746;2023-07-24T07:38:03;25.70;96.70
13482;DHT22;6813;60.352;15.746;2023-07-24T07:40:29;25.80;96.30
13482;DHT22;6813;60.352;15.746;2023-07-24T07:42:55;25.90;96.20
13482;DHT22;6813;60.352;15.746;2023-07-24T07:45:22;26.10;96.20
13482;DHT22;6813;60.352;15.746;2023-07-24T07:47:47;26.20;95.70
13482;DHT22;6813;60.352;15.746;2023-07-24T07:50:13;26.30;96.10
13482;DHT22;6813;60.352;15.746;2023-07-24T07:52:39;26.50;95.50
13482;DHT22;6813;60.352;15.746;2023-07-24T07:55:05;26.40;94.00
13482;DHT22;6813;60.352;15.746;2023-07-24T07:57:35;26.50;95.30
13482;DHT22;6813;60.352;15.746;2023-07-24T08:00:04;26.70;94.40
13482;DHT22;6813;60.352;15.746;2023-07-24T08:02:31;26.80;93.50
13482;DHT22;6813;60.352;15.746;2023-07-24T08:04:57;26.90;93.50
13482;DHT22;6813;60.352;15.746;2023-07-24T08:07:23;27.00;93.50
13482;DHT22;6813;60.352;15.746;2023-07-24T08:09:49;27.10;93.00
13482;DHT22;6813;60.352;15.746;2023-07-24T08:12:15;27.10;92.10
13482;DHT22;6813;60.352;15.746;2023-07-24T08:14:40;27.20;92.70
13482;DHT22;6813;60.352;15.746;2023-07-24T08:17:06;27.40;92.40
13482;DHT22;6813;60.352;15.746;2023-07-24T08:19:32;27.50;92.00
13482;DHT22;6813;60.352;15.746;2023-07-24T08:21:57;27.60;91.60
13482;DHT22;6813;60.352;15.746;2023-07-24T08:24:23;27.60;91.70
13482;DHT22;6813;60.352;15.746;2023-07-24T08:26:49;27.60;91.70
13482;DHT22;6813;60.352;15.746;2023-07-24T08:29:14;27.70;90.90
13482;DHT22;6813;60.352;15.746;2023-07-24T08:31:40;27.70;91.00
13482;DHT22;6813;60.352;15.746;2023-07-24T08:34:06;27.90;90.00
13482;DHT22;6813;60.352;15.746;2023-07-24T08:36:32;28.00;88.60
13482;DHT22;6813;60.352;15.746;2023-07-24T08:38:57;27.90;90.60
13482;DHT22;6813;60.352;15.746;2023-07-24T08:41:23;27.60;90.50
13482;DHT22;6813;60.352;15.746;2023-07-24T08:43:49;27.40;80.30
13482;DHT22;6813;60.352;15.746;2023-07-24T08:46:18;26.70;79.50
13482;DHT22;6813;60.352;15.746;2023-07-24T08:48:44;26.60;80.00
13482;DHT22;6813;60.352;15.746;2023-07-24T08:51:11;26.50;82.40
13482;DHT22;6813;60.352;15.746;2023-07-24T08:53:39;26.30;75.10
13482;DHT22;6813;60.352;15.746;2023-07-24T08:56:07;25.40;75.30
13482;DHT22;6813;60.352;15.746;2023-07-24T08:58:33;25.00;79.90
13482;DHT22;6813;60.352;15.746;2023-07-24T09:01:01;24.60;78.30
13482;DHT22;6813;60.352;15.746;2023-07-24T09:03:27;23.90;76.80
13482;DHT22;6813;60.352;15.746;2023-07-24T09:05:53;23.90;83.70
13482;DHT22;6813;60.352;15.746;2023-07-24T09:08:48;24.00;81.90
13482;DHT22;6813;60.352;15.746;2023-07-24T09:11:14;23.90;82.20
13482;DHT22;6813;60.352;15.746;2023-07-24T09:13:43;23.80;81.50
13482;DHT22;6813;60.352;15.746;2023-07-24T09:16:20;23.50;82.70
13482;DHT22;6813;60.352;15.746;2023-07-24T09:18:45;23.50;82.60
13482;DHT22;6813;60.352;15.746;2023-07-24T09:21:11;23.70;85.00
13482;DHT22;6813;60.352;15.746;2023-07-24T09:23:38;23.80;83.10
13482;DHT22;6813;60.352;15.746;2023-07-24T09:26:08;24.00;83.30
13482;DHT22;6813;60.352;15.746;2023-07-24T09:28:35;24.20;85.70
13482;DHT22;6813;60.352;15.746;2023-07-24T09:31:01;24.00;84.60
13482;DHT22;6813;60.352;15.746;2023-07-24T09:33:38;23.80;88.10
13482;DHT22;6813;60.352;15.746;2023-07-24T09:36:06;24.00;82.70
13482;DHT22;6813;60.352;15.746;2023-07-24T09:38:39;24.20;83.10
13482;DHT22;6813;60.352;15.746;2023-07-24T09:41:05;24.20;82.50
13482;DHT22;6813;60.352;15.746;2023-07-24T09:43:32;24.20;86.30
13482;DHT22;6813;60.352;15.746;2023-07-24T09:45:58;23.90;83.30
13482;DHT22;6813;60.352;15.746;2023-07-24T09:48:26;23.60;81.80
13482;DHT22;6813;60.352;15.746;2023-07-24T09:50:57;23.40;86.70
13482;DHT22;6813;60.352;15.746;2023-07-24T09:53:43;23.40;90.00
13482;DHT22;6813;60.352;15.746;2023-07-24T09:56:10;23.30;85.90
13482;DHT22;6813;60.352;15.746;2023-07-24T09:58:39;23.30;85.70
13482;DHT22;6813;60.352;15.746;2023-07-24T10:01:07;23.20;85.20
13482;DHT22;6813;60.352;15.746;2023-07-24T10:03:37;23.10;85.50
13482;DHT22;6813;60.352;15.746;2023-07-24T10:06:04;23.10;86.30
13482;DHT22;6813;60.352;15.746;2023-07-24T10:08:30;23.30;88.40
13482;DHT22;6813;60.352;15.746;2023-07-24T10:10:58;23.20;87.80
13482;DHT22;6813;60.352;15.746;2023-07-24T10:13:26;23.20;89.30
13482;DHT22;6813;60.352;15.746;2023-07-24T10:15:52;23.10;84.30
13482;DHT22;6813;60.352;15.746;2023-07-24T10:18:26;23.40;90.00
13482;DHT22;6813;60.352;15.746;2023-07-24T10:21:00;23.30;83.20
13482;DHT22;6813;60.352;15.746;2023-07-24T10:23:26;23.00;81.50
13482;DHT22;6813;60.352;15.746;2023-07-24T10:25:52;23.20;90.40
13482;DHT22;6813;60.352;15.746;2023-07-24T10:28:18;23.10;85.20
13482;DHT22;6813;60.352;15.746;2023-07-24T10:30:44;23.50;87.60
13482;DHT22;6813;60.352;15.746;2023-07-24T10:33:17;23.50;87.10
13482;DHT22;6813;60.352;15.746;2023-07-24T10:35:49;23.50;85.80
13482;DHT22;6813;60.352;15.746;2023-07-24T10:38:16;23.30;82.50
13482;DHT22;6813;60.352;15.746;2023-07-24T10:40:44;23.40;82.10
13482;DHT22;6813;60.352;15.746;2023-07-24T10:43:13;23.60;79.40
13482;DHT22;6813;60.352;15.746;2023-07-24T10:45:53;23.50;77.10
13482;DHT22;6813;60.352;15.746;2023-07-24T10:48:25;23.30;76.10
13482;DHT22;6813;60.352;15.746;2023-07-24T10:50:51;23.20;78.30
13482;DHT22;6813;60.352;15.746;2023-07-24T10:53:19;23.00;77.90
13482;DHT22;6813;60.352;15.746;2023-07-24T10:55:46;23.30;79.30
13482;DHT22;6813;60.352;15.746;2023-07-24T10:58:13;23.30;79.60
13482;DHT22;6813;60.352;15.746;2023-07-24T11:00:40;23.50;78.80
13482;DHT22;6813;60.352;15.746;2023-07-24T11:03:11;23.50;82.20
13482;DHT22;6813;60.352;15.746;2023-07-24T11:05:40;23.50;79.30
13482;DHT22;6813;60.352;15.746;2023-07-24T11:08:18;23.30;79.80
13482;DHT22;6813;60.352;15.746;2023-07-24T11:10:46;23.30;78.40
13482;DHT22;6813;60.352;15.746;2023-07-24T11:13:19;23.60;81.30
13482;DHT22;6813;60.352;15.746;2023-07-24T11:15:46;23.60;76.60
13482;DHT22;6813;60.352;15.746;2023-07-24T11:18:12;23.40;77.20
13482;DHT22;6813;60.352;15.746;2023-07-24T11:20:47;23.20;77.50
13482;DHT22;6813;60.352;15.746;2023-07-24T11:23:14;23.20;79.20
13482;DHT22;6813;60.352;15.746;2023-07-24T11:25:41;23.30;78.50
13482;DHT22;6813;60.352;15.746;2023-07-24T11:28:08;23.20;82.00
13482;DHT22;6813;60.352;15.746;2023-07-24T11:30:34;23.20;79.20
13482;DHT22;6813;60.352;15.746;2023-07-24T11:33:01;23.30;79.60
13482;DHT22;6813;60.352;15.746;2023-07-24T11:35:27;23.60;81.70
13482;DHT22;6813;60.352;15.746;2023-07-24T11:37:53;23.80;80.90
13482;DHT22;6813;60.352;15.746;2023-07-24T11:40:19;23.60;78.80
13482;DHT22;6813;60.352;15.746;2023-07-24T11:42:47;23.70;77.10
13482;DHT22;6813;60.352;15.746;2023-07-24T11:45:14;23.80;77.20
13482;DHT22;6813;60.352;15.746;2023-07-24T11:47:47;23.60;75.90
13482;DHT22;6813;60.352;15.746;2023-07-24T11:50:14;23.30;72.80
13482;DHT22;6813;60.352;15.746;2023-07-24T11:52:45;23.10;78.70
13482;DHT22;6813;60.352;15.746;2023-07-24T11:55:16;23.00;76.70
13482;DHT22;6813;60.352;15.746;2023-07-24T11:57:42;22.90;77.20
13482;DHT22;6813;60.352;15.746;2023-07-24T12:00:21;23.00;82.00
13482;DHT22;6813;60.352;15.746;2023-07-24T12:02:47;23.10;80.80
13482;DHT22;6813;60.352;15.746;2023-07-24T12:05:13;23.50;85.20
13482;DHT22;6813;60.352;15.746;2023-07-24T12:07:39;23.30;79.70
13482;DHT22;6813;60.352;15.746;2023-07-24T12:10:06;23.20;83.80
13482;DHT22;6813;60.352;15.746;2023-07-24T12:12:44;23.30;84.50
13482;DHT22;6813;60.352;15.746;2023-07-24T12:15:11;23.50;80.80
13482;DHT22;6813;60.352;15.746;2023-07-24T12:17:37;23.50;76.50
13482;DHT22;6813;60.352;15.746;2023-07-24T12:20:07;23.30;78.10
13482;DHT22;6813;60.352;15.746;2023-07-24T12:22:37;23.10;75.60
13482;DHT22;6813;60.352;15.746;2023-07-24T12:25:03;22.90;76.70
13482;DHT22;6813;60.352;15.746;2023-07-24T12:27:29;22.60;80.00
13482;DHT22;6813;60.352;15.746;2023-07-24T12:29:55;22.50;80.00
13482;DHT22;6813;60.352;15.746;2023-07-24T12:32:21;22.40;82.30
13482;DHT22;6813;60.352;15.746;2023-07-24T12:34:49;22.60;82.20
13482;DHT22;6813;60.352;15.746;2023-07-24T12:37:16;22.60;82.40
13482;DHT22;6813;60.352;15.746;2023-07-24T12:39:46;22.60;81.70
13482;DHT22;6813;60.352;15.746;2023-07-24T12:42:12;22.50;79.70
13482;DHT22;6813;60.352;15.746;2023-07-24T12:44:38;22.60;84.80
13482;DHT22;6813;60.352;15.746;2023-07-24T12:47:04;22.60;85.00
13482;DHT22;6813;60.352;15.746;2023-07-24T12:49:30;22.60;84.70
13482;DHT22;6813;60.352;15.746;2023-07-24T12:51:56;22.60;79.30
13482;DHT22;6813;60.352;15.746;2023-07-24T12:54:22;22.50;81.00
13482;DHT22;6813;60.352;15.746;2023-07-24T12:56:49;22.50;77.80
13482;DHT22;6813;60.352;15.746;2023-07-24T12:59:15;22.60;79.70
13482;DHT22;6813;60.352;15.746;2023-07-24T13:01:41;22.80;79.80
13482;DHT22;6813;60.352;15.746;2023-07-24T13:04:07;22.70;77.50
13482;DHT22;6813;60.352;15.746;2023-07-24T13:06:33;22.80;78.20
13482;DHT22;6813;60.352;15.746;2023-07-24T13:08:59;22.90;80.20
13482;DHT22;6813;60.352;15.746;2023-07-24T13:11:25;22.70;77.80
13482;DHT22;6813;60.352;15.746;2023-07-24T13:13:53;22.80;78.80
13482;DHT22;6813;60.352;15.746;2023-07-24T13:16:19;22.60;78.70
13482;DHT22;6813;60.352;15.746;2023-07-24T13:18:45;22.40;76.90
13482;DHT22;6813;60.352;15.746;2023-07-24T13:21:10;22.30;80.80
13482;DHT22;6813;60.352;15.746;2023-07-24T13:23:36;22.30;78.30
13482;DHT22;6813;60.352;15.746;2023-07-24T13:26:02;22.50;81.40
13482;DHT22;6813;60.352;15.746;2023-07-24T13:28:28;22.60;78.20
13482;DHT22;6813;60.352;15.746;2023-07-24T13:30:54;22.60;80.40
13482;DHT22;6813;60.352;15.746;2023-07-24T13:33:20;22.60;79.00
13482;DHT22;6813;60.352;15.746;2023-07-24T13:35:48;22.60;79.40
13482;DHT22;6813;60.352;15.746;2023-07-24T13:38:14;22.60;80.80
13482;DHT22;6813;60.352;15.746;2023-07-24T13:40:40;22.60;79.00
13482;DHT22;6813;60.352;15.746;2023-07-24T13:43:06;22.60;79.70
13482;DHT22;6813;60.352;15.746;2023-07-24T13:45:31;22.70;78.70
13482;DHT22;6813;60.352;15.746;2023-07-24T13:47:57;22.60;78.40
13482;DHT22;6813;60.352;15.746;2023-07-24T13:50:24;22.40;79.50
13482;DHT22;6813;60.352;15.746;2023-07-24T13:52:49;22.20;78.60
13482;DHT22;6813;60.352;15.746;2023-07-24T13:55:15;22.30;83.00
13482;DHT22;6813;60.352;15.746;2023-07-24T13:57:41;22.30;79.70
13482;DHT22;6813;60.352;15.746;2023-07-24T14:00:07;22.20;79.50
13482;DHT22;6813;60.352;15.746;2023-07-24T14:02:33;22.10;80.10
13482;DHT22;6813;60.352;15.746;2023-07-24T14:04:59;22.00;79.20
13482;DHT22;6813;60.352;15.746;2023-07-24T14:07:24;22.00;80.40
13482;DHT22;6813;60.352;15.746;2023-07-24T14:09:50;22.10;82.60
13482;DHT22;6813;60.352;15.746;2023-07-24T14:12:16;22.10;83.00
13482;DHT22;6813;60.352;15.746;2023-07-24T14:14:41;22.00;82.10
13482;DHT22;6813;60.352;15.746;2023-07-24T14:17:07;22.10;80.70
13482;DHT22;6813;60.352;15.746;2023-07-24T14:19:33;22.00;80.20
13482;DHT22;6813;60.352;15.746;2023-07-24T14:21:59;22.00;80.40
13482;DHT22;6813;60.352;15.746;2023-07-24T14:24:25;22.00;82.60
13482;DHT22;6813;60.352;15.746;2023-07-24T14:26:51;22.00;82.80
13482;DHT22;6813;60.352;15.746;2023-07-24T14:29:16;22.00;82.60
13482;DHT22;6813;60.352;15.746;2023-07-24T14:31:43;22.10;82.40
13482;DHT22;6813;60.352;15.746;2023-07-24T14:34:09;22.10;81.30
13482;DHT22;6813;60.352;15.746;2023-07-24T14:36:37;22.10;84.10
13482;DHT22;6813;60.352;15.746;2023-07-24T14:39:04;22.10;84.80
13482;DHT22;6813;60.352;15.746;2023-07-24T14:41:30;22.00;84.40
13482;DHT22;6813;60.352;15.746;2023-07-24T14:43:56;22.00;85.20
13482;DHT22;6813;60.352;15.746;2023-07-24T14:46:21;21.90;84.20
13482;DHT22;6813;60.352;15.746;2023-07-24T14:48:47;21.90;86.40
13482;DHT22;6813;60.352;15.746;2023-07-24T14:51:13;21.90;86.00
13482;DHT22;6813;60.352;15.746;2023-07-24T14:53:38;21.90;85.40
13482;DHT22;6813;60.352;15.746;2023-07-24T14:56:04;21.80;87.20
13482;DHT22;6813;60.352;15.746;2023-07-24T14:58:30;21.80;85.40
13482;DHT22;6813;60.352;15.746;2023-07-24T15:00:56;21.80;86.70
13482;DHT22;6813;60.352;15.746;2023-07-24T15:03:22;21.80;86.00
13482;DHT22;6813;60.352;15.746;2023-07-24T15:05:48;21.90;87.40
13482;DHT22;6813;60.352;15.746;2023-07-24T15:08:14;21.90;87.40
13482;DHT22;6813;60.352;15.746;2023-07-24T15:10:39;21.90;87.40
13482;DHT22;6813;60.352;15.746;2023-07-24T15:13:07;21.80;86.40
13482;DHT22;6813;60.352;15.746;2023-07-24T15:15:32;21.70;85.90
13482;DHT22;6813;60.352;15.746;2023-07-24T15:17:59;21.70;86.50
13482;DHT22;6813;60.352;15.746;2023-07-24T15:20:25;21.80;86.20
13482;DHT22;6813;60.352;15.746;2023-07-24T15:22:51;21.70;85.90
13482;DHT22;6813;60.352;15.746;2023-07-24T15:25:19;21.80;85.00
13482;DHT22;6813;60.352;15.746;2023-07-24T15:27:45;21.70;84.00
13482;DHT22;6813;60.352;15.746;2023-07-24T15:30:11;21.60;84.70
13482;DHT22;6813;60.352;15.746;2023-07-24T15:32:37;21.50;83.80
13482;DHT22;6813;60.352;15.746;2023-07-24T15:35:03;21.50;84.20